sensor_id;sensor_type;location;lat;lon;timestamp;temperature;humidity
17252;DHT22;8742;51.716;8.790;2024-02-23T00:00:00;8.70;99.90
17252;DHT22;8742;51.716;8.790;2024-02-23T00:02:32;8.80;99.90
17252;DHT22;8742;51.716;8.790;2024-02-23T00:04:59;8.80;99.90
17252;DHT22;8742;51.716;8.790;2024-02-23T00:07:25;8.80;99.90
17252;DHT22;8742;51.716;8.790;2024-02-23T00:09:52;8.80;99.90
17252;DHT22;8742;51.716;8.790;2024-02-23T00:12:19;8.80;99.90
17252;DHT22;8742;51.716;8.790;2024-02-23T00:14:46;8.80;99.90
17252;DHT22;8742;51.716;8.790;2024-02-23T00:17:13;8.80;99.90
17252;DHT22;8742;51.716;8.790;2024-02-23T00:19:44;8.80;99.90
17252;DHT22;8742;51.716;8.790;2024-02-23T00:22:11;8.70;99.90
17252;DHT22;8742;51.716;8.790;2024-02-23T00:24:38;8.70;99.90
17252;DHT22;8742;51.716;8.790;2024-02-23T00:27:06;8.70;99.90
17252;DHT22;8742;51.716;8.790;2024-02-23T00:29:33;8.60;99.90
17252;DHT22;8742;51.716;8.790;2024-02-23T00:32:00;8.60;99.90
17252;DHT22;8742;51.716;8.790;2024-02-23T00:34:27;8.60;99.90
17252;DHT22;8742;51.716;8.790;2024-02-23T00:36:57;8.50;99.90
17252;DHT22;8742;51.716;8.790;2024-02-23T00:39:24;8.40;99.90
17252;DHT22;8742;51.716;8.790;2024-02-23T00:41:51;8.40;99.90
17252;DHT22;8742;51.716;8.790;2024-02-23T00:44:17;8.40;99.90
17252;DHT22;8742;51.716;8.790;2024-02-23T00:46:44;8.30;99.90
17252;DHT22;8742;51.716;8.790;2024-02-23T00:49:11;8.30;99.90
17252;DHT22;8742;51.716;8.790;2024-02-23T00:51:38;8.30;99.90
17252;DHT22;8742;51.716;8.790;2024-02-23T00:54:06;8.20;99.90
17252;DHT22;8742;51.716;8.790;2024-02-23T00:56:34;8.20;99.90
17252;DHT22;8742;51.716;8.790;2024-02-23T00:59:01;8.10;99.90
17252;DHT22;8742;51.716;8.790;2024-02-23T01:01:28;8.00;99.90
17252;DHT22;8742;51.716;8.790;2024-02-23T01:03:55;8.00;99.90
17252;DHT22;8742;51.716;8.790;2024-02-23T01:06:21;7.90;99.90
17252;DHT22;8742;51.716;8.790;2024-02-23T01:08:49;7.90;99.90
17252;DHT22;8742;51.716;8.790;2024-02-23T01:11:17;7.90;99.90
17252;DHT22;8742;51.716;8.790;2024-02-23T01:13:44;7.80;99.90
17252;DHT22;8742;51.716;8.790;2024-02-23T01:16:11;7.70;99.90
17252;DHT22;8742;51.716;8.790;2024-02-23T01:18:38;7.70;99.90
17252;DHT22;8742;51.716;8.790;2024-02-23T01:21:05;7.60;99.90
17252;DHT22;8742;51.716;8.790;2024-02-23T01:23:32;7.50;99.90
17252;DHT22;8742;51.716;8.790;2024-02-23T01:25:59;7.50;99.90
17252;DHT22;8742;51.716;8.790;2024-02-23T01:28:28;7.40;99.90
17252;DHT22;8742;51.716;8.790;2024-02-23T01:30:55;7.30;99.90
17252;DHT22;8742;51.716;8.790;2024-02-23T01:33:21;7.20;99.90
17252;DHT22;8742;51.716;8.790;2024-02-23T01:35:48;7.10;99.90
17252;DHT22;8742;51.716;8.790;2024-02-23T01:38:16;7.00;99.90
17252;DHT22;8742;51.716;8.790;2024-02-23T01:40:46;6.90;99.90
17252;DHT22;8742;51.716;8.790;2024-02-23T01:43:13;6.90;99.90
17252;DHT22;8742;51.716;8.790;2024-02-23T01:45:41;6.80;99.90
17252;DHT22;8742;51.716;8.790;2024-02-23T01:48:08;6.70;99.90
17252;DHT22;8742;51.716;8.790;2024-02-23T01:50:35;6.70;99.90
17252;DHT22;8742;51.716;8.790;2024-02-23T01:53:03;6.60;99.90
17252;DHT22;8742;51.716;8.790;2024-02-23T01:55:29;6.50;99.90
17252;DHT22;8742;51.716;8.790;2024-02-23T01:57:57;6.50;99.90
17252;DHT22;8742;51.716;8.790;2024-02-23T02:00:24;6.40;99.90
17252;DHT22;8742;51.716;8.790;2024-02-23T02:02:52;6.50;99.90
17252;DHT22;8742;51.716;8.790;2024-02-23T02:05:19;6.50;99.90
17252;DHT22;8742;51.716;8.790;2024-02-23T02:07:47;6.50;99.90
17252;DHT22;8742;51.716;8.790;2024-02-23T02:10:16;6.40;99.90
17252;DHT22;8742;51.716;8.790;2024-02-23T02:12:43;6.40;99.90
17252;DHT22;8742;51.716;8.790;2024-02-23T02:15:10;6.30;99.90
17252;DHT22;8742;51.716;8.790;2024-02-23T02:17:37;6.30;99.90
17252;DHT22;8742;51.716;8.790;2024-02-23T02:20:10;6.20;99.90
17252;DHT22;8742;51.716;8.790;2024-02-23T02:22:38;6.10;99.90
17252;DHT22;8742;51.716;8.790;2024-02-23T02:25:06;6.10;99.90
17252;DHT22;8742;51.716;8.790;2024-02-23T02:27:33;6.00;99.90
17252;DHT22;8742;51.716;8.790;2024-02-23T02:30:00;6.00;99.90
17252;DHT22;8742;51.716;8.790;2024-02-23T02:32:28;6.00;99.90
17252;DHT22;8742;51.716;8.790;2024-02-23T02:34:55;6.00;99.90
17252;DHT22;8742;51.716;8.790;2024-02-23T02:37:23;5.90;99.90
17252;DHT22;8742;51.716;8.790;2024-02-23T02:39:50;5.90;99.90
17252;DHT22;8742;51.716;8.790;2024-02-23T02:42:17;5.80;99.90
17252;DHT22;8742;51.716;8.790;2024-02-23T02:44:43;5.80;99.90
17252;DHT22;8742;51.716;8.790;2024-02-23T02:47:10;5.70;99.90
17252;DHT22;8742;51.716;8.790;2024-02-23T02:49:39;5.70;99.90
17252;DHT22;8742;51.716;8.790;2024-02-23T02:52:06;5.70;99.90
17252;DHT22;8742;51.716;8.790;2024-02-23T02:54:35;5.60;99.90
17252;DHT22;8742;51.716;8.790;2024-02-23T02:57:02;5.70;99.90
17252;DHT22;8742;51.716;8.790;2024-02-23T02:59:29;5.70;99.90
17252;DHT22;8742;51.716;8.790;2024-02-23T03:01:57;5.80;99.90
17252;DHT22;8742;51.716;8.790;2024-02-23T03:04:24;5.90;99.90
17252;DHT22;8742;51.716;8.790;2024-02-23T03:06:50;5.90;99.90
17252;DHT22;8742;51.716;8.790;2024-02-23T03:09:17;6.00;99.90
17252;DHT22;8742;51.716;8.790;2024-02-23T03:11:45;6.00;99.90
17252;DHT22;8742;51.716;8.790;2024-02-23T03:14:12;6.10;99.90
17252;DHT22;8742;51.716;8.790;2024-02-23T03:16:39;6.10;99.90
17252;DHT22;8742;51.716;8.790;2024-02-23T03:19:06;6.20;99.90
17252;DHT22;8742;51.716;8.790;2024-02-23T03:21:33;6.20;99.90
17252;DHT22;8742;51.716;8.790;2024-02-23T03:24:00;6.30;99.90
17252;DHT22;8742;51.716;8.790;2024-02-23T03:26:27;6.30;99.90
17252;DHT22;8742;51.716;8.790;2024-02-23T03:28:55;6.30;99.90
17252;DHT22;8742;51.716;8.790;2024-02-23T03:31:22;6.30;99.90
17252;DHT22;8742;51.716;8.790;2024-02-23T03:33:49;6.30;99.90
17252;DHT22;8742;51.716;8.790;2024-02-23T03:36:16;6.40;99.90
17252;DHT22;8742;51.716;8.790;2024-02-23T03:38:42;6.40;99.90
17252;DHT22;8742;51.716;8.790;2024-02-23T03:41:09;6.30;99.90
17252;DHT22;8742;51.716;8.790;2024-02-23T03:43:36;6.30;99.90
17252;DHT22;8742;51.716;8.790;2024-02-23T03:46:06;6.30;99.90
17252;DHT22;8742;51.716;8.790;2024-02-23T03:48:32;6.30;99.90
17252;DHT22;8742;51.716;8.790;2024-02-23T03:50:59;6.30;99.90
17252;DHT22;8742;51.716;8.790;2024-02-23T03:53:26;6.30;99.90
17252;DHT22;8742;51.716;8.790;2024-02-23T03:55:53;6.30;99.90
17252;DHT22;8742;51.716;8.790;2024-02-23T03:58:20;6.30;99.90
17252;DHT22;8742;51.716;8.790;2024-02-23T04:00:47;6.30;99.90
17252;DHT22;8742;51.716;8.790;2024-02-23T04:03:15;6.30;99.90
17252;DHT22;8742;51.716;8.790;2024-02-23T04:05:42;6.30;99.90
17252;DHT22;8742;51.716;8.790;2024-02-23T04:08:09;6.30;99.90
17252;DHT22;8742;51.716;8.790;2024-02-23T04:10:35;6.20;99.90
17252;DHT22;8742;51.716;8.790;2024-02-23T04:13:03;6.20;99.90
17252;DHT22;8742;51.716;8.790;2024-02-23T04:15:29;6.20;99.90
17252;DHT22;8742;51.716;8.790;2024-02-23T04:17:56;6.20;99.90
17252;DHT22;8742;51.716;8.790;2024-02-23T04:20:25;6.20;99.90
17252;DHT22;8742;51.716;8.790;2024-02-23T04:22:51;6.10;99.90
17252;DHT22;8742;51.716;8.790;2024-02-23T04:25:18;6.10;99.90
17252;DHT22;8742;51.716;8.790;2024-02-23T04:27:45;6.10;99.90
17252;DHT22;8742;51.716;8.790;2024-02-23T04:30:12;6.10;99.90
17252;DHT22;8742;51.716;8.790;2024-02-23T04:32:39;6.10;99.90
17252;DHT22;8742;51.716;8.790;2024-02-23T04:35:07;6.10;99.90
17252;DHT22;8742;51.716;8.790;2024-02-23T04:37:35;6.10;99.90
17252;DHT22;8742;51.716;8.790;2024-02-23T04:40:03;6.00;99.90
17252;DHT22;8742;51.716;8.790;2024-02-23T04:42:31;6.00;99.90
17252;DHT22;8742;51.716;8.790;2024-02-23T04:44:57;6.00;99.90
17252;DHT22;8742;51.716;8.790;2024-02-23T04:47:24;5.90;99.90
17252;DHT22;8742;51.716;8.790;2024-02-23T04:49:51;5.90;99.90
17252;DHT22;8742;51.716;8.790;2024-02-23T04:52:18;5.80;99.90
17252;DHT22;8742;51.716;8.790;2024-02-23T04:54:48;5.80;99.90
17252;DHT22;8742;51.716;8.790;2024-02-23T04:57:15;5.80;99.90
17252;DHT22;8742;51.716;8.790;2024-02-23T04:59:42;5.70;99.90
17252;DHT22;8742;51.716;8.790;2024-02-23T05:02:09;5.70;99.90
17252;DHT22;8742;51.716;8.790;2024-02-23T05:04:35;5.70;99.90
17252;DHT22;8742;51.716;8.790;2024-02-23T05:07:02;5.70;99.90
17252;DHT22;8742;51.716;8.790;2024-02-23T05:09:29;5.80;99.90
17252;DHT22;8742;51.716;8.790;2024-02-23T05:11:58;5.80;99.90
17252;DHT22;8742;51.716;8.790;2024-02-23T05:14:26;5.80;99.90
17252;DHT22;8742;51.716;8.790;2024-02-23T05:16:52;5.90;99.90
17252;DHT22;8742;51.716;8.790;2024-02-23T05:19:19;5.90;99.90
17252;DHT22;8742;51.716;8.790;2024-02-23T05:21:46;5.90;99.90
17252;DHT22;8742;51.716;8.790;2024-02-23T05:24:13;5.90;99.90
17252;DHT22;8742;51.716;8.790;2024-02-23T05:26:39;5.90;99.90
17252;DHT22;8742;51.716;8.790;2024-02-23T05:29:08;5.90;99.90
17252;DHT22;8742;51.716;8.790;2024-02-23T05:31:45;5.90;99.90
17252;DHT22;8742;51.716;8.790;2024-02-23T05:34:11;5.90;99.90
17252;DHT22;8742;51.716;8.790;2024-02-23T05:36:38;6.00;99.90
17252;DHT22;8742;51.716;8.790;2024-02-23T05:39:05;5.90;99.90
17252;DHT22;8742;51.716;8.790;2024-02-23T05:41:36;5.90;99.90
17252;DHT22;8742;51.716;8.790;2024-02-23T05:44:03;5.90;99.90
17252;DHT22;8742;51.716;8.790;2024-02-23T05:46:32;5.80;99.90
17252;DHT22;8742;51.716;8.790;2024-02-23T05:48:59;5.80;99.90
17252;DHT22;8742;51.716;8.790;2024-02-23T05:51:27;5.80;99.90
17252;DHT22;8742;51.716;8.790;2024-02-23T05:53:54;5.80;99.90
17252;DHT22;8742;51.716;8.790;2024-02-23T05:56:22;5.80;99.90
17252;DHT22;8742;51.716;8.790;2024-02-23T05:58:49;5.80;99.90
17252;DHT22;8742;51.716;8.790;2024-02-23T06:01:16;5.80;99.90
17252;DHT22;8742;51.716;8.790;2024-02-23T06:03:45;5.80;99.90
17252;DHT22;8742;51.716;8.790;2024-02-23T06:06:12;5.90;99.90
17252;DHT22;8742;51.716;8.790;2024-02-23T06:08:39;5.90;99.90
17252;DHT22;8742;51.716;8.790;2024-02-23T06:11:06;5.90;99.90
17252;DHT22;8742;51.716;8.790;2024-02-23T06:13:35;5.90;99.90
17252;DHT22;8742;51.716;8.790;2024-02-23T06:16:03;5.90;99.90
17252;DHT22;8742;51.716;8.790;2024-02-23T06:18:29;5.90;99.90
17252;DHT22;8742;51.716;8.790;2024-02-23T06:20:58;6.00;99.90
17252;DHT22;8742;51.716;8.790;2024-02-23T06:23:24;6.00;99.90
17252;DHT22;8742;51.716;8.790;2024-02-23T06:25:51;6.00;99.90
17252;DHT22;8742;51.716;8.790;2024-02-23T06:28:18;6.00;99.90
17252;DHT22;8742;51.716;8.790;2024-02-23T06:30:45;6.00;99.90
17252;DHT22;8742;51.716;8.790;2024-02-23T06:33:12;5.90;99.90
17252;DHT22;8742;51.716;8.790;2024-02-23T06:35:38;5.90;99.90
17252;DHT22;8742;51.716;8.790;2024-02-23T06:38:07;5.90;99.90
17252;DHT22;8742;51.716;8.790;2024-02-23T06:40:33;5.80;99.90
17252;DHT22;8742;51.716;8.790;2024-02-23T06:43:00;5.70;99.90
17252;DHT22;8742;51.716;8.790;2024-02-23T06:45:27;5.60;99.90
17252;DHT22;8742;51.716;8.790;2024-02-23T06:47:54;5.50;99.90
17252;DHT22;8742;51.716;8.790;2024-02-23T06:50:21;5.50;99.90
17252;DHT22;8742;51.716;8.790;2024-02-23T06:52:48;5.40;99.90
17252;DHT22;8742;51.716;8.790;2024-02-23T06:55:16;5.40;99.90
17252;DHT22;8742;51.716;8.790;2024-02-23T06:57:43;5.40;99.90
17252;DHT22;8742;51.716;8.790;2024-02-23T07:00:11;5.30;99.90
17252;DHT22;8742;51.716;8.790;2024-02-23T07:02:38;5.30;99.90
17252;DHT22;8742;51.716;8.790;2024-02-23T07:05:05;5.30;99.90
17252;DHT22;8742;51.716;8.790;2024-02-23T07:07:32;5.40;99.90
17252;DHT22;8742;51.716;8.790;2024-02-23T07:09:59;5.40;99.90
17252;DHT22;8742;51.716;8.790;2024-02-23T07:12:27;5.40;99.90
17252;DHT22;8742;51.716;8.790;2024-02-23T07:14:55;5.40;99.90
17252;DHT22;8742;51.716;8.790;2024-02-23T07:17:22;5.40;99.90
17252;DHT22;8742;51.716;8.790;2024-02-23T07:19:49;5.40;99.90
17252;DHT22;8742;51.716;8.790;2024-02-23T07:22:16;5.50;99.90
17252;DHT22;8742;51.716;8.790;2024-02-23T07:24:44;5.50;99.90
17252;DHT22;8742;51.716;8.790;2024-02-23T07:27:11;5.60;99.90
17252;DHT22;8742;51.716;8.790;2024-02-23T07:29:40;5.60;99.90
17252;DHT22;8742;51.716;8.790;2024-02-23T07:32:07;5.70;99.90
17252;DHT22;8742;51.716;8.790;2024-02-23T07:34:34;5.70;99.90
17252;DHT22;8742;51.716;8.790;2024-02-23T07:37:01;5.70;99.90
17252;DHT22;8742;51.716;8.790;2024-02-23T07:39:28;5.70;99.90
17252;DHT22;8742;51.716;8.790;2024-02-23T07:41:55;5.80;99.90
17252;DHT22;8742;51.716;8.790;2024-02-23T07:44:22;5.80;99.90
17252;DHT22;8742;51.716;8.790;2024-02-23T07:46:51;5.90;99.90
17252;DHT22;8742;51.716;8.790;2024-02-23T07:49:20;5.90;99.90
17252;DHT22;8742;51.716;8.790;2024-02-23T07:51:47;6.00;99.90
17252;DHT22;8742;51.716;8.790;2024-02-23T07:54:14;6.00;99.90
17252;DHT22;8742;51.716;8.790;2024-02-23T07:56:41;6.00;99.90
17252;DHT22;8742;51.716;8.790;2024-02-23T07:59:09;6.10;99.90
17252;DHT22;8742;51.716;8.790;2024-02-23T08:01:36;6.20;99.90
17252;DHT22;8742;51.716;8.790;2024-02-23T08:04:04;6.20;99.90
17252;DHT22;8742;51.716;8.790;2024-02-23T08:06:31;6.30;99.90
17252;DHT22;8742;51.716;8.790;2024-02-23T08:08:58;6.40;99.90
17252;DHT22;8742;51.716;8.790;2024-02-23T08:11:25;6.50;99.90
17252;DHT22;8742;51.716;8.790;2024-02-23T08:13:52;6.60;99.90
17252;DHT22;8742;51.716;8.790;2024-02-23T08:16:19;6.60;99.90
17252;DHT22;8742;51.716;8.790;2024-02-23T08:18:45;6.80;99.90
17252;DHT22;8742;51.716;8.790;2024-02-23T08:21:14;6.90;99.90
17252;DHT22;8742;51.716;8.790;2024-02-23T08:23:41;7.20;99.90
17252;DHT22;8742;51.716;8.790;2024-02-23T08:26:07;7.40;99.90
17252;DHT22;8742;51.716;8.790;2024-02-23T08:28:35;7.50;99.90
17252;DHT22;8742;51.716;8.790;2024-02-23T08:31:02;7.60;99.90
17252;DHT22;8742;51.716;8.790;2024-02-23T08:33:29;7.60;99.90
17252;DHT22;8742;51.716;8.790;2024-02-23T08:35:56;7.60;99.90
17252;DHT22;8742;51.716;8.790;2024-02-23T08:38:24;7.70;99.90
17252;DHT22;8742;51.716;8.790;2024-02-23T08:40:51;7.70;99.90
17252;DHT22;8742;51.716;8.790;2024-02-23T08:43:18;7.70;99.90
17252;DHT22;8742;51.716;8.790;2024-02-23T08:45:45;7.90;99.90
17252;DHT22;8742;51.716;8.790;2024-02-23T08:48:12;8.20;99.90
17252;DHT22;8742;51.716;8.790;2024-02-23T08:50:40;9.20;99.90
17252;DHT22;8742;51.716;8.790;2024-02-23T08:53:07;10.20;99.90
17252;DHT22;8742;51.716;8.790;2024-02-23T08:55:35;11.20;99.90
17252;DHT22;8742;51.716;8.790;2024-02-23T08:58:02;11.80;99.90
17252;DHT22;8742;51.716;8.790;2024-02-23T09:00:31;12.30;99.90
17252;DHT22;8742;51.716;8.790;2024-02-23T09:02:58;12.60;99.90
17252;DHT22;8742;51.716;8.790;2024-02-23T09:05:24;12.80;99.90
17252;DHT22;8742;51.716;8.790;2024-02-23T09:07:51;12.90;99.90
17252;DHT22;8742;51.716;8.790;2024-02-23T09:10:18;13.00;99.90
17252;DHT22;8742;51.716;8.790;2024-02-23T09:12:47;13.30;99.90
17252;DHT22;8742;51.716;8.790;2024-02-23T09:15:14;13.60;99.90
17252;DHT22;8742;51.716;8.790;2024-02-23T09:17:41;13.80;99.90
17252;DHT22;8742;51.716;8.790;2024-02-23T09:20:09;13.90;99.90
17252;DHT22;8742;51.716;8.790;2024-02-23T09:22:36;14.30;99.90
17252;DHT22;8742;51.716;8.790;2024-02-23T09:25:04;13.90;99.90
17252;DHT22;8742;51.716;8.790;2024-02-23T09:27:31;13.30;99.90
17252;DHT22;8742;51.716;8.790;2024-02-23T09:29:59;12.40;99.90
17252;DHT22;8742;51.716;8.790;2024-02-23T09:32:26;11.80;99.90
17252;DHT22;8742;51.716;8.790;2024-02-23T09:34:53;11.60;99.90
17252;DHT22;8742;51.716;8.790;2024-02-23T09:37:20;11.50;99.90
17252;DHT22;8742;51.716;8.790;2024-02-23T09:39:47;11.20;99.90
17252;DHT22;8742;51.716;8.790;2024-02-23T09:42:14;10.90;99.90
17252;DHT22;8742;51.716;8.790;2024-02-23T09:44:44;10.60;99.90
17252;DHT22;8742;51.716;8.790;2024-02-23T09:47:13;10.30;99.90
17252;DHT22;8742;51.716;8.790;2024-02-23T09:49:41;10.00;99.90
17252;DHT22;8742;51.716;8.790;2024-02-23T09:52:08;9.80;99.90
17252;DHT22;8742;51.716;8.790;2024-02-23T09:54:36;9.80;99.90
17252;DHT22;8742;51.716;8.790;2024-02-23T09:57:07;9.70;99.90
17252;DHT22;8742;51.716;8.790;2024-02-23T09:59:34;9.60;99.90
17252;DHT22;8742;51.716;8.790;2024-02-23T10:02:01;9.60;99.90
17252;DHT22;8742;51.716;8.790;2024-02-23T10:04:31;10.30;99.90
17252;DHT22;8742;51.716;8.790;2024-02-23T10:06:58;11.50;99.90
17252;DHT22;8742;51.716;8.790;2024-02-23T10:09:24;12.50;99.90
17252;DHT22;8742;51.716;8.790;2024-02-23T10:11:54;13.00;99.90
17252;DHT22;8742;51.716;8.790;2024-02-23T10:14:21;13.20;99.90
17252;DHT22;8742;51.716;8.790;2024-02-23T10:16:48;13.60;99.90
17252;DHT22;8742;51.716;8.790;2024-02-23T10:19:19;13.60;99.90
17252;DHT22;8742;51.716;8.790;2024-02-23T10:21:47;13.60;99.90
17252;DHT22;8742;51.716;8.790;2024-02-23T10:24:15;13.20;99.90
17252;DHT22;8742;51.716;8.790;2024-02-23T10:26:42;12.80;99.90
17252;DHT22;8742;51.716;8.790;2024-02-23T10:29:10;12.40;99.90
17252;DHT22;8742;51.716;8.790;2024-02-23T10:31:37;12.10;99.90
17252;DHT22;8742;51.716;8.790;2024-02-23T10:34:07;12.40;99.90
17252;DHT22;8742;51.716;8.790;2024-02-23T10:36:40;12.70;99.90
17252;DHT22;8742;51.716;8.790;2024-02-23T10:39:09;13.10;99.90
17252;DHT22;8742;51.716;8.790;2024-02-23T10:41:39;12.80;99.90
17252;DHT22;8742;51.716;8.790;2024-02-23T10:44:11;12.50;99.90
17252;DHT22;8742;51.716;8.790;2024-02-23T10:46:38;12.60;99.90
17252;DHT22;8742;51.716;8.790;2024-02-23T10:49:07;13.20;99.90
17252;DHT22;8742;51.716;8.790;2024-02-23T10:51:34;13.60;99.90
17252;DHT22;8742;51.716;8.790;2024-02-23T10:54:03;13.50;99.90
17252;DHT22;8742;51.716;8.790;2024-02-23T10:56:31;13.00;99.90
17252;DHT22;8742;51.716;8.790;2024-02-23T10:58:58;12.40;99.90
17252;DHT22;8742;51.716;8.790;2024-02-23T11:01:25;12.10;99.90
17252;DHT22;8742;51.716;8.790;2024-02-23T11:03:53;12.10;99.90
17252;DHT22;8742;51.716;8.790;2024-02-23T11:06:23;12.10;99.90
17252;DHT22;8742;51.716;8.790;2024-02-23T11:09:04;12.00;99.90
17252;DHT22;8742;51.716;8.790;2024-02-23T11:11:33;12.60;99.90
17252;DHT22;8742;51.716;8.790;2024-02-23T11:14:03;13.60;99.90
17252;DHT22;8742;51.716;8.790;2024-02-23T11:16:38;14.20;99.90
17252;DHT22;8742;51.716;8.790;2024-02-23T11:19:06;14.70;99.90
17252;DHT22;8742;51.716;8.790;2024-02-23T11:21:35;15.00;99.90
17252;DHT22;8742;51.716;8.790;2024-02-23T11:24:04;15.20;99.90
17252;DHT22;8742;51.716;8.790;2024-02-23T11:26:32;15.60;99.90
17252;DHT22;8742;51.716;8.790;2024-02-23T11:29:10;15.50;99.90
17252;DHT22;8742;51.716;8.790;2024-02-23T11:31:44;15.70;99.90
17252;DHT22;8742;51.716;8.790;2024-02-23T11:34:11;15.90;99.90
17252;DHT22;8742;51.716;8.790;2024-02-23T11:36:39;16.20;99.90
17252;DHT22;8742;51.716;8.790;2024-02-23T11:39:06;16.60;99.90
17252;DHT22;8742;51.716;8.790;2024-02-23T11:41:36;16.80;99.90
17252;DHT22;8742;51.716;8.790;2024-02-23T11:44:04;16.60;99.90
17252;DHT22;8742;51.716;8.790;2024-02-23T11:46:32;16.20;99.40
17252;DHT22;8742;51.716;8.790;2024-02-23T11:48:59;15.70;98.80
17252;DHT22;8742;51.716;8.790;2024-02-23T11:51:26;15.30;99.10
17252;DHT22;8742;51.716;8.790;2024-02-23T11:53:55;14.60;99.80
17252;DHT22;8742;51.716;8.790;2024-02-23T11:56:23;13.70;99.90
17252;DHT22;8742;51.716;8.790;2024-02-23T11:58:53;13.00;99.90
17252;DHT22;8742;51.716;8.790;2024-02-23T12:01:20;12.50;99.90
17252;DHT22;8742;51.716;8.790;2024-02-23T12:03:47;12.20;99.90
17252;DHT22;8742;51.716;8.790;2024-02-23T12:06:15;11.90;99.90
17252;DHT22;8742;51.716;8.790;2024-02-23T12:08:42;11.70;99.90
17252;DHT22;8742;51.716;8.790;2024-02-23T12:11:09;11.60;99.90
17252;DHT22;8742;51.716;8.790;2024-02-23T12:13:37;11.60;99.90
17252;DHT22;8742;51.716;8.790;2024-02-23T12:16:07;11.50;99.90
17252;DHT22;8742;51.716;8.790;2024-02-23T12:18:34;11.50;99.90
17252;DHT22;8742;51.716;8.790;2024-02-23T12:21:01;11.50;99.90
17252;DHT22;8742;51.716;8.790;2024-02-23T12:23:39;11.50;99.90
17252;DHT22;8742;51.716;8.790;2024-02-23T12:26:05;11.60;99.90
17252;DHT22;8742;51.716;8.790;2024-02-23T12:28:32;11.70;99.90
17252;DHT22;8742;51.716;8.790;2024-02-23T12:31:00;12.70;99.90
17252;DHT22;8742;51.716;8.790;2024-02-23T12:33:29;13.90;99.90
17252;DHT22;8742;51.716;8.790;2024-02-23T12:35:56;14.90;99.90
17252;DHT22;8742;51.716;8.790;2024-02-23T12:38:23;15.40;99.90
17252;DHT22;8742;51.716;8.790;2024-02-23T12:40:50;15.30;99.90
17252;DHT22;8742;51.716;8.790;2024-02-23T12:43:18;15.00;99.90
17252;DHT22;8742;51.716;8.790;2024-02-23T12:45:47;14.90;99.90
17252;DHT22;8742;51.716;8.790;2024-02-23T12:48:16;15.00;99.90
17252;DHT22;8742;51.716;8.790;2024-02-23T12:50:44;15.70;99.90
17252;DHT22;8742;51.716;8.790;2024-02-23T12:53:30;16.30;99.90
17252;DHT22;8742;51.716;8.790;2024-02-23T12:55:57;16.40;99.90
17252;DHT22;8742;51.716;8.790;2024-02-23T12:58:24;16.40;99.90
17252;DHT22;8742;51.716;8.790;2024-02-23T13:00:51;15.90;99.00
17252;DHT22;8742;51.716;8.790;2024-02-23T13:03:18;15.30;99.90
17252;DHT22;8742;51.716;8.790;2024-02-23T13:05:46;14.60;99.90
17252;DHT22;8742;51.716;8.790;2024-02-23T13:08:13;13.90;99.90
17252;DHT22;8742;51.716;8.790;2024-02-23T13:10:40;13.50;99.90
17252;DHT22;8742;51.716;8.790;2024-02-23T13:13:07;13.00;99.90
17252;DHT22;8742;51.716;8.790;2024-02-23T13:15:34;12.60;99.90
17252;DHT22;8742;51.716;8.790;2024-02-23T13:18:02;12.20;99.90
17252;DHT22;8742;51.716;8.790;2024-02-23T13:20:29;12.00;99.90
17252;DHT22;8742;51.716;8.790;2024-02-23T13:22:57;12.00;99.90
17252;DHT22;8742;51.716;8.790;2024-02-23T13:25:24;12.00;99.90
17252;DHT22;8742;51.716;8.790;2024-02-23T13:27:51;12.00;99.90
17252;DHT22;8742;51.716;8.790;2024-02-23T13:30:18;11.90;99.90
17252;DHT22;8742;51.716;8.790;2024-02-23T13:32:45;11.80;99.90
17252;DHT22;8742;51.716;8.790;2024-02-23T13:35:12;11.80;99.90
17252;DHT22;8742;51.716;8.790;2024-02-23T13:37:40;11.60;99.90
17252;DHT22;8742;51.716;8.790;2024-02-23T13:40:09;11.60;99.90
17252;DHT22;8742;51.716;8.790;2024-02-23T13:42:36;11.50;99.90
17252;DHT22;8742;51.716;8.790;2024-02-23T13:45:05;11.40;99.90
17252;DHT22;8742;51.716;8.790;2024-02-23T13:47:32;11.30;99.90
17252;DHT22;8742;51.716;8.790;2024-02-23T13:49:59;11.30;99.90
17252;DHT22;8742;51.716;8.790;2024-02-23T13:52:26;11.20;99.90
17252;DHT22;8742;51.716;8.790;2024-02-23T13:54:53;11.10;99.90
17252;DHT22;8742;51.716;8.790;2024-02-23T13:57:21;10.90;99.90
17252;DHT22;8742;51.716;8.790;2024-02-23T13:59:48;10.80;99.90
17252;DHT22;8742;51.716;8.790;2024-02-23T14:02:15;10.70;99.90
17252;DHT22;8742;51.716;8.790;2024-02-23T14:04:44;10.60;99.90
17252;DHT22;8742;51.716;8.790;2024-02-23T14:07:11;10.50;99.90
17252;DHT22;8742;51.716;8.790;2024-02-23T14:09:38;10.40;99.90
17252;DHT22;8742;51.716;8.790;2024-02-23T14:12:05;10.30;99.90
17252;DHT22;8742;51.716;8.790;2024-02-23T14:14:33;10.30;99.90
17252;DHT22;8742;51.716;8.790;2024-02-23T14:17:00;10.60;99.90
17252;DHT22;8742;51.716;8.790;2024-02-23T14:19:27;10.80;99.90
17252;DHT22;8742;51.716;8.790;2024-02-23T14:21:54;10.80;99.90
17252;DHT22;8742;51.716;8.790;2024-02-23T14:24:20;10.70;99.90
17252;DHT22;8742;51.716;8.790;2024-02-23T14:26:47;10.70;99.90
17252;DHT22;8742;51.716;8.790;2024-02-23T14:29:14;10.60;99.90
17252;DHT22;8742;51.716;8.790;2024-02-23T14:31:44;10.50;99.90
17252;DHT22;8742;51.716;8.790;2024-02-23T14:34:11;10.40;99.90
17252;DHT22;8742;51.716;8.790;2024-02-23T14:36:38;10.30;99.90
17252;DHT22;8742;51.716;8.790;2024-02-23T14:39:05;10.30;99.90
17252;DHT22;8742;51.716;8.790;2024-02-23T14:41:32;10.20;99.90
17252;DHT22;8742;51.716;8.790;2024-02-23T14:43:58;10.20;99.90
17252;DHT22;8742;51.716;8.790;2024-02-23T14:46:25;10.20;99.90
17252;DHT22;8742;51.716;8.790;2024-02-23T14:48:53;10.10;99.90
17252;DHT22;8742;51.716;8.790;2024-02-23T14:51:20;10.20;99.90
17252;DHT22;8742;51.716;8.790;2024-02-23T14:53:47;10.10;99.90
17252;DHT22;8742;51.716;8.790;2024-02-23T14:56:14;10.10;99.90
17252;DHT22;8742;51.716;8.790;2024-02-23T14:58:41;10.10;99.90
17252;DHT22;8742;51.716;8.790;2024-02-23T15:01:08;10.10;99.90
17252;DHT22;8742;51.716;8.790;2024-02-23T15:03:35;10.10;99.90
17252;DHT22;8742;51.716;8.790;2024-02-23T15:06:03;10.10;99.90
17252;DHT22;8742;51.716;8.790;2024-02-23T15:08:30;10.10;99.90
17252;DHT22;8742;51.716;8.790;2024-02-23T15:10:57;10.10;99.90
17252;DHT22;8742;51.716;8.790;2024-02-23T15:13:24;10.00;99.90
17252;DHT22;8742;51.716;8.790;2024-02-23T15:15:50;10.00;99.90
17252;DHT22;8742;51.716;8.790;2024-02-23T15:18:18;10.00;99.90
17252;DHT22;8742;51.716;8.790;2024-02-23T15:20:45;10.10;99.90
17252;DHT22;8742;51.716;8.790;2024-02-23T15:23:15;10.10;99.90
17252;DHT22;8742;51.716;8.790;2024-02-23T15:25:41;10.00;99.90
17252;DHT22;8742;51.716;8.790;2024-02-23T15:28:09;10.00;99.90
17252;DHT22;8742;51.716;8.790;2024-02-23T15:30:36;10.00;99.90
17252;DHT22;8742;51.716;8.790;2024-02-23T15:33:02;10.00;99.90
17252;DHT22;8742;51.716;8.790;2024-02-23T15:35:29;10.00;99.90
17252;DHT22;8742;51.716;8.790;2024-02-23T15:37:57;10.00;99.90
17252;DHT22;8742;51.716;8.790;2024-02-23T15:40:26;9.90;99.90
17252;DHT22;8742;51.716;8.790;2024-02-23T15:42:52;9.90;99.90
17252;DHT22;8742;51.716;8.790;2024-02-23T15:45:19;9.90;99.90
17252;DHT22;8742;51.716;8.790;2024-02-23T15:47:46;10.00;99.90
17252;DHT22;8742;51.716;8.790;2024-02-23T15:50:13;10.00;99.90
17252;DHT22;8742;51.716;8.790;2024-02-23T15:52:40;10.00;99.90
17252;DHT22;8742;51.716;8.790;2024-02-23T15:55:08;10.00;99.90